Time;durP1;ratioP1;P1;durP2;ratioP2;P2;SDS_P1;SDS_P2;PMS_P1;PMS_P2;Temp;Humidity;BMP_temperature;BMP_pressure;BME280_temperature;BME280_humidity;BME280_pressure;Samples;Min_cycle;Max_cycle;Signal;HPM_P1;HPM_P2
2023/06/02 00:02:11;;;;;;;;;;;;;;;16.26;76.15;95785.19;5048030;28;19933;-72
2023/06/02 00:04:38;;;;;;;;;;;;;;;16.13;78.97;95783.63;5062737;28;19974;-73
2023/06/02 00:07:05;;;;;;;;;;;;;;;16.20;77.55;95784.75;5052786;28;19925;-72
2023/06/02 00:09:37;;;;;;;;;;;;;;;16.29;78.64;95779.69;5059782;28;20293;-72
2023/06/02 00:12:03;;;;;;;;;;;;;;;16.12;78.36;95778.50;5052254;28;19929;-72
2023/06/02 00:14:30;;;;;;;;;;;;;;;16.10;77.29;95778.66;5044755;28;19952;-72
2023/06/02 00:17:00;;;;;;;;;;;;;;;15.95;78.29;95779.94;5064351;28;20407;-72
2023/06/02 00:19:30;;;;;;;;;;;;;;;15.88;80.83;95781.41;5048139;28;19940;-73
2023/06/02 00:21:57;;;;;;;;;;;;;;;15.58;83.38;95779.53;5066083;28;19931;-72
2023/06/02 00:24:23;;;;;;;;;;;;;;;15.42;83.51;95772.94;5055612;28;19964;-73
2023/06/02 00:26:50;;;;;;;;;;;;;;;15.37;80.94;95769.06;5056645;28;20326;-72
2023/06/02 00:29:17;;;;;;;;;;;;;;;15.38;80.74;95774.16;5047763;28;19925;-73
2023/06/02 00:31:43;;;;;;;;;;;;;;;15.41;80.99;95771.28;5060208;28;19924;-73
2023/06/02 00:34:10;;;;;;;;;;;;;;;15.36;81.98;95768.25;5051444;28;19925;-73
2023/06/02 00:36:36;;;;;;;;;;;;;;;15.32;83.81;95769.44;5057994;28;19966;-72
2023/06/02 00:39:03;;;;;;;;;;;;;;;15.33;85.20;95772.88;5060385;28;20295;-72
2023/06/02 00:41:30;;;;;;;;;;;;;;;15.39;85.49;95775.00;5059839;28;19931;-72
2023/06/02 00:43:57;;;;;;;;;;;;;;;15.39;85.83;95767.19;5057448;28;20016;-72
2023/06/02 00:46:24;;;;;;;;;;;;;;;15.24;86.53;95775.31;5055877;28;19929;-73
2023/06/02 00:48:50;;;;;;;;;;;;;;;15.14;87.24;95771.78;5057948;28;19925;-72
2023/06/02 00:51:17;;;;;;;;;;;;;;;15.28;86.07;95769.81;5066082;28;19931;-72
2023/06/02 00:53:44;;;;;;;;;;;;;;;15.25;87.04;95776.13;5064134;28;19982;-72
2023/06/02 00:56:12;;;;;;;;;;;;;;;15.28;86.52;95777.63;5050787;28;19925;-72
2023/06/02 00:58:39;;;;;;;;;;;;;;;15.19;87.34;95776.59;5052642;28;20011;-72
2023/06/02 01:01:08;;;;;;;;;;;;;;;15.06;89.65;95776.78;5053916;28;19925;-72
2023/06/02 01:03:34;;;;;;;;;;;;;;;15.00;89.74;95774.66;5065375;28;19976;-73
2023/06/02 01:06:02;;;;;;;;;;;;;;;15.01;89.11;95784.97;5054853;28;19925;-73
2023/06/02 01:08:30;;;;;;;;;;;;;;;14.96;89.21;95783.69;5052337;28;20000;-73
2023/06/02 01:10:56;;;;;;;;;;;;;;;15.19;87.93;95777.44;5049602;28;20008;-73
2023/06/02 01:13:23;;;;;;;;;;;;;;;14.89;89.75;95772.91;5047055;28;20370;-73
2023/06/02 01:15:49;;;;;;;;;;;;;;;14.68;91.05;95772.84;5055440;28;19928;-73
2023/06/02 01:18:25;;;;;;;;;;;;;;;14.63;91.06;95780.19;5043538;28;20388;-73
2023/06/02 01:20:57;;;;;;;;;;;;;;;14.69;90.25;95769.28;5050904;28;19924;-73
2023/06/02 01:23:29;;;;;;;;;;;;;;;14.77;89.32;95771.28;5048673;28;19925;-73
2023/06/02 01:25:57;;;;;;;;;;;;;;;14.76;90.30;95769.63;5057332;28;19932;-74
2023/06/02 01:28:24;;;;;;;;;;;;;;;14.64;91.82;95776.63;5053190;28;20012;-74
2023/06/02 01:30:52;;;;;;;;;;;;;;;14.62;90.72;95767.28;5051204;28;19925;-74
2023/06/02 01:33:21;;;;;;;;;;;;;;;14.67;88.94;95771.19;5057819;28;20410;-72
2023/06/02 01:35:48;;;;;;;;;;;;;;;14.73;86.44;95768.09;5046368;28;19951;-73
2023/06/02 01:38:17;;;;;;;;;;;;;;;14.78;87.14;95759.91;5054479;28;19936;-74
2023/06/02 01:40:43;;;;;;;;;;;;;;;14.84;87.17;95771.63;5056588;28;19932;-73
2023/06/02 01:43:11;;;;;;;;;;;;;;;14.77;87.63;95764.28;5063846;28;19925;-73
2023/06/02 01:45:38;;;;;;;;;;;;;;;14.69;87.71;95771.91;5052024;28;19928;-73
2023/06/02 01:48:05;;;;;;;;;;;;;;;14.74;86.89;95774.97;5052200;28;20299;-73
2023/06/02 01:50:32;;;;;;;;;;;;;;;14.62;88.73;95778.53;5052809;28;19929;-73
2023/06/02 01:52:58;;;;;;;;;;;;;;;14.44;89.09;95772.97;5064513;28;19924;-74
2023/06/02 01:55:24;;;;;;;;;;;;;;;14.26;91.93;95779.59;5059063;28;19931;-74
2023/06/02 01:57:51;;;;;;;;;;;;;;;14.16;93.58;95773.44;5053701;28;20439;-74
2023/06/02 02:00:19;;;;;;;;;;;;;;;14.07;91.70;95769.75;5053638;28;19983;-73
2023/06/02 02:02:46;;;;;;;;;;;;;;;13.95;93.47;95774.13;5050904;28;19978;-72
2023/06/02 02:05:12;;;;;;;;;;;;;;;13.84;93.29;95768.91;5061702;28;20009;-73
2023/06/02 02:07:42;;;;;;;;;;;;;;;13.77;94.22;95771.16;5054128;28;19924;-74
2023/06/02 02:10:09;;;;;;;;;;;;;;;13.78;93.15;95774.56;5046344;28;19971;-73
2023/06/02 02:12:35;;;;;;;;;;;;;;;13.76;93.62;95774.72;5050098;28;20292;-73
2023/06/02 02:15:01;;;;;;;;;;;;;;;13.68;95.20;95771.84;5052698;28;19947;-72
2023/06/02 02:17:30;;;;;;;;;;;;;;;13.63;95.09;95773.97;5055059;28;19978;-72
2023/06/02 02:19:56;;;;;;;;;;;;;;;13.67;94.33;95770.19;5058286;28;19932;-72
2023/06/02 02:22:24;;;;;;;;;;;;;;;13.62;95.98;95764.50;5054565;28;20023;-73
2023/06/02 02:24:50;;;;;;;;;;;;;;;13.52;97.41;95764.34;5052177;28;19931;-72
2023/06/02 02:27:17;;;;;;;;;;;;;;;13.45;99.07;95760.53;5053258;28;20020;-73
2023/06/02 02:29:43;;;;;;;;;;;;;;;13.53;97.67;95767.78;5055524;28;19933;-72
2023/06/02 02:32:09;;;;;;;;;;;;;;;13.56;99.25;95762.34;5058686;28;19982;-73
2023/06/02 02:34:38;;;;;;;;;;;;;;;13.55;99.32;95765.91;5060415;28;19933;-72
2023/06/02 02:37:06;;;;;;;;;;;;;;;13.68;97.82;95771.00;5054568;28;19925;-72
2023/06/02 02:39:33;;;;;;;;;;;;;;;13.63;97.35;95767.94;5066994;28;19933;-72
2023/06/02 02:41:59;;;;;;;;;;;;;;;13.55;98.39;95768.50;5058888;28;20330;-72
2023/06/02 02:44:25;;;;;;;;;;;;;;;13.44;99.62;95765.88;5060135;28;19925;-73
2023/06/02 02:46:51;;;;;;;;;;;;;;;13.30;100.00;95769.47;5053968;28;19929;-73
2023/06/02 02:49:18;;;;;;;;;;;;;;;13.13;100.00;95781.09;5047297;28;19952;-73
2023/06/02 02:51:45;;;;;;;;;;;;;;;13.16;100.00;95772.22;5067442;28;19970;-73
2023/06/02 02:54:12;;;;;;;;;;;;;;;13.15;100.00;95771.41;5056580;28;19929;-73
2023/06/02 02:56:40;;;;;;;;;;;;;;;13.23;100.00;95771.69;5054867;28;19981;-72
2023/06/02 02:59:06;;;;;;;;;;;;;;;13.32;99.63;95768.44;5052156;28;20023;-73
2023/06/02 03:01:32;;;;;;;;;;;;;;;13.37;97.55;95767.25;5047304;28;20063;-72
2023/06/02 03:04:07;;;;;;;;;;;;;;;13.34;94.50;95767.50;5155504;27;19915;-73
2023/06/02 03:06:37;;;;;;;;;;;;;;;13.37;94.41;95767.25;5135578;27;19934;-73
2023/06/02 03:09:04;;;;;;;;;;;;;;;13.41;93.71;95769.53;5128299;27;20385;-72
2023/06/02 03:11:30;;;;;;;;;;;;;;;13.54;94.70;95772.06;5135593;27;19924;-73
2023/06/02 03:13:56;;;;;;;;;;;;;;;13.13;94.80;95775.06;5129332;27;19935;-74
2023/06/02 03:16:23;;;;;;;;;;;;;;;12.88;98.39;95776.00;5128534;27;19935;-74
2023/06/02 03:18:49;;;;;;;;;;;;;;;12.51;100.00;95779.44;5128867;27;20416;-73
2023/06/02 03:21:17;;;;;;;;;;;;;;;12.37;100.00;95781.34;5130537;27;20378;-74
2023/06/02 03:23:43;;;;;;;;;;;;;;;12.46;100.00;95776.34;5127460;27;19924;-74
2023/06/02 03:26:11;;;;;;;;;;;;;;;12.47;100.00;95777.19;5138442;27;19932;-74
2023/06/02 03:28:38;;;;;;;;;;;;;;;12.29;100.00;95784.47;5129378;27;19931;-74
2023/06/02 03:31:04;;;;;;;;;;;;;;;11.97;100.00;95784.09;5130913;27;20309;-74
2023/06/02 03:33:31;;;;;;;;;;;;;;;11.92;100.00;95784.41;5137786;27;19928;-72
2023/06/02 03:35:57;;;;;;;;;;;;;;;11.87;100.00;95789.09;5138350;27;19932;-73
2023/06/02 03:38:25;;;;;;;;;;;;;;;11.89;100.00;95784.59;5137922;27;19931;-73
2023/06/02 03:40:51;;;;;;;;;;;;;;;11.72;100.00;95777.13;5140585;27;19923;-74
2023/06/02 03:43:17;;;;;;;;;;;;;;;11.67;100.00;95782.59;5137443;27;19935;-73
2023/06/02 03:45:45;;;;;;;;;;;;;;;11.74;100.00;95786.44;5143295;27;19949;-73
2023/06/02 03:48:11;;;;;;;;;;;;;;;11.81;100.00;95792.06;5143040;27;19966;-73
2023/06/02 03:50:38;;;;;;;;;;;;;;;11.75;100.00;95795.06;5132836;27;20319;-73
2023/06/02 03:53:05;;;;;;;;;;;;;;;11.74;100.00;95791.63;5139845;27;20415;-74
2023/06/02 03:55:32;;;;;;;;;;;;;;;11.85;100.00;95789.16;5134087;27;19923;-73
2023/06/02 03:57:59;;;;;;;;;;;;;;;11.91;100.00;95790.53;5135311;27;20390;-73
2023/06/02 04:00:25;;;;;;;;;;;;;;;12.01;100.00;95788.97;5128946;27;20017;-74
2023/06/02 04:02:51;;;;;;;;;;;;;;;12.09;100.00;95796.25;5121375;27;19928;-72
2023/06/02 04:05:18;;;;;;;;;;;;;;;12.11;100.00;95797.78;5128068;27;19924;-73
2023/06/02 04:07:44;;;;;;;;;;;;;;;12.26;100.00;95795.91;5127719;27;19924;-74
2023/06/02 04:10:11;;;;;;;;;;;;;;;12.36;100.00;95796.09;5122941;27;19924;-73
2023/06/02 04:12:38;;;;;;;;;;;;;;;12.37;100.00;95796.94;5133267;27;19980;-72
2023/06/02 04:15:05;;;;;;;;;;;;;;;12.41;100.00;95794.00;5118223;27;19924;-72
2023/06/02 04:17:31;;;;;;;;;;;;;;;12.41;100.00;95791.41;5124474;27;19968;-72
2023/06/02 04:19:57;;;;;;;;;;;;;;;12.43;100.00;95794.75;5110326;27;19932;-72
2023/06/02 04:22:24;;;;;;;;;;;;;;;12.48;100.00;95800.44;5105655;27;20440;-72
2023/06/02 04:24:50;;;;;;;;;;;;;;;12.54;100.00;95799.19;5103895;27;20394;-72
2023/06/02 04:27:17;;;;;;;;;;;;;;;12.66;100.00;95803.53;5123902;27;20348;-72
2023/06/02 04:29:45;;;;;;;;;;;;;;;12.79;100.00;95811.25;5119998;27;20382;-72
2023/06/02 04:32:11;;;;;;;;;;;;;;;12.94;100.00;95807.59;5117833;27;19923;-72
2023/06/02 04:34:37;;;;;;;;;;;;;;;13.02;100.00;95804.44;5110971;27;20388;-74
2023/06/02 04:37:05;;;;;;;;;;;;;;;13.06;100.00;95801.50;5124947;27;19924;-73
2023/06/02 04:39:34;;;;;;;;;;;;;;;13.10;100.00;95790.91;5109756;27;20764;-72
2023/06/02 04:42:01;;;;;;;;;;;;;;;13.20;100.00;95803.13;5121133;27;19929;-73
2023/06/02 04:44:27;;;;;;;;;;;;;;;13.27;100.00;95812.19;5115602;27;19928;-73
2023/06/02 04:46:55;;;;;;;;;;;;;;;13.01;100.00;95811.38;5116075;27;19931;-74
2023/06/02 04:49:21;;;;;;;;;;;;;;;13.10;100.00;95807.31;5118908;27;19963;-73
2023/06/02 04:51:49;;;;;;;;;;;;;;;13.18;100.00;95812.78;5116978;27;19928;-73
2023/06/02 04:54:15;;;;;;;;;;;;;;;13.38;100.00;95815.75;5116201;27;19975;-73
2023/06/02 04:56:42;;;;;;;;;;;;;;;13.21;100.00;95807.38;5112853;27;19980;-73
2023/06/02 04:59:08;;;;;;;;;;;;;;;13.21;100.00;95828.19;5120094;27;20036;-73
2023/06/02 05:01:34;;;;;;;;;;;;;;;13.24;100.00;95819.38;5121530;27;19928;-73
2023/06/02 05:04:04;;;;;;;;;;;;;;;13.38;100.00;95813.13;5126941;27;20539;-74
2023/06/02 05:06:30;;;;;;;;;;;;;;;13.37;100.00;95814.09;5115440;27;19928;-74
2023/06/02 05:08:56;;;;;;;;;;;;;;;13.34;100.00;95820.34;5125949;27;20018;-74
2023/06/02 05:11:23;;;;;;;;;;;;;;;13.71;100.00;95823.66;5113676;27;20393;-74
2023/06/02 05:13:49;;;;;;;;;;;;;;;13.88;100.00;95829.41;5119050;27;19923;-73
2023/06/02 05:16:17;;;;;;;;;;;;;;;13.51;100.00;95826.91;5123305;27;19930;-75
2023/06/02 05:18:43;;;;;;;;;;;;;;;13.92;100.00;95812.59;5119096;27;19927;-74
2023/06/02 05:21:11;;;;;;;;;;;;;;;13.60;100.00;95813.22;5122687;27;19989;-76
2023/06/02 05:23:39;;;;;;;;;;;;;;;13.48;100.00;95819.34;5113454;27;19928;-74
2023/06/02 05:26:05;;;;;;;;;;;;;;;13.31;100.00;95828.34;5108337;28;20432;-75
2023/06/02 05:28:31;;;;;;;;;;;;;;;13.29;100.00;95825.88;5121193;27;19927;-76
2023/06/02 05:30:58;;;;;;;;;;;;;;;13.01;100.00;95818.38;5113264;28;19923;-76
2023/06/02 05:33:24;;;;;;;;;;;;;;;13.27;100.00;95821.72;5119481;27;19976;-75
2023/06/02 05:35:50;;;;;;;;;;;;;;;13.30;100.00;95824.94;5120859;27;19992;-75
2023/06/02 05:38:18;;;;;;;;;;;;;;;13.35;100.00;95813.34;5123449;27;19927;-75
2023/06/02 05:40:44;;;;;;;;;;;;;;;12.77;100.00;95813.16;5124714;27;19929;-75
2023/06/02 05:43:10;;;;;;;;;;;;;;;13.23;100.00;95817.66;5121528;27;19924;-75
2023/06/02 05:45:37;;;;;;;;;;;;;;;13.29;100.00;95822.44;5116192;27;19927;-73
2023/06/02 05:48:03;;;;;;;;;;;;;;;13.45;100.00;95822.97;5120701;27;19923;-69
2023/06/02 05:50:30;;;;;;;;;;;;;;;13.52;100.00;95820.75;5117660;27;19928;-75
2023/06/02 05:52:56;;;;;;;;;;;;;;;13.31;100.00;95820.56;5117292;27;19923;-75
2023/06/02 05:55:23;;;;;;;;;;;;;;;13.43;100.00;95824.06;5111051;28;19932;-75
2023/06/02 05:57:51;;;;;;;;;;;;;;;14.07;100.00;95827.06;5115615;27;19952;-76
2023/06/02 06:00:18;;;;;;;;;;;;;;;14.33;100.00;95826.84;5122971;27;19949;-77
2023/06/02 06:02:46;;;;;;;;;;;;;;;14.43;100.00;95825.19;5122584;27;20598;-76
2023/06/02 06:05:13;;;;;;;;;;;;;;;14.51;100.00;95823.69;5117850;27;20293;-75
2023/06/02 06:07:39;;;;;;;;;;;;;;;14.51;100.00;95822.84;5125827;27;19930;-75
2023/06/02 06:10:06;;;;;;;;;;;;;;;13.99;100.00;95829.41;5123100;27;19930;-75
2023/06/02 06:12:33;;;;;;;;;;;;;;;14.26;100.00;95827.31;5119763;27;19994;-76
2023/06/02 06:14:59;;;;;;;;;;;;;;;14.29;100.00;95834.91;5118476;27;19980;-75
2023/06/02 06:17:26;;;;;;;;;;;;;;;14.56;100.00;95833.75;5118081;27;19950;-75
2023/06/02 06:19:52;;;;;;;;;;;;;;;14.50;100.00;95826.41;5121952;27;19928;-75
2023/06/02 06:22:18;;;;;;;;;;;;;;;15.04;100.00;95827.41;5119442;27;19923;-75
2023/06/02 06:24:44;;;;;;;;;;;;;;;15.10;100.00;95830.38;5122637;27;19927;-75
2023/06/02 06:27:11;;;;;;;;;;;;;;;15.40;100.00;95836.69;5112225;27;19924;-77
2023/06/02 06:29:38;;;;;;;;;;;;;;;15.65;100.00;95844.22;5112128;27;19972;-76
2023/06/02 06:32:06;;;;;;;;;;;;;;;14.83;100.00;95843.81;5111485;27;19931;-76
2023/06/02 06:34:33;;;;;;;;;;;;;;;14.56;100.00;95840.75;5099584;28;20406;-75
2023/06/02 06:37:00;;;;;;;;;;;;;;;14.57;100.00;95840.59;5091965;28;19947;-77
2023/06/02 06:39:26;;;;;;;;;;;;;;;14.93;100.00;95841.28;5096991;28;19928;-74
2023/06/02 06:41:52;;;;;;;;;;;;;;;15.00;100.00;95845.06;5096493;28;19934;-74
2023/06/02 06:44:18;;;;;;;;;;;;;;;15.01;100.00;95844.13;5098524;28;19928;-74
2023/06/02 06:46:46;;;;;;;;;;;;;;;15.46;100.00;95839.63;5100680;28;19982;-75
2023/06/02 06:49:12;;;;;;;;;;;;;;;15.20;100.00;95838.25;5097752;28;19951;-73
2023/06/02 06:51:38;;;;;;;;;;;;;;;15.78;100.00;95833.56;5095737;28;19977;-74
2023/06/02 06:54:05;;;;;;;;;;;;;;;15.88;100.00;95841.47;5093984;28;19924;-75
2023/06/02 06:56:31;;;;;;;;;;;;;;;15.66;100.00;95845.84;5081660;28;19925;-75
2023/06/02 06:58:57;;;;;;;;;;;;;;;15.54;100.00;95846.00;5098973;28;19928;-76
2023/06/02 07:01:24;;;;;;;;;;;;;;;15.67;100.00;95846.69;5089717;28;19978;-75
2023/06/02 07:03:51;;;;;;;;;;;;;;;15.94;100.00;95849.66;5098524;28;19935;-75
2023/06/02 07:06:18;;;;;;;;;;;;;;;16.68;100.00;95846.84;5097248;28;20395;-76
2023/06/02 07:08:44;;;;;;;;;;;;;;;16.58;96.71;95859.06;5093106;28;19923;-76
2023/06/02 07:11:10;;;;;;;;;;;;;;;16.82;96.88;95856.16;5092180;28;19955;-76
2023/06/02 07:13:38;;;;;;;;;;;;;;;16.76;97.00;95859.31;5091796;28;19973;-75
2023/06/02 07:16:05;;;;;;;;;;;;;;;16.04;99.70;95854.91;5098772;28;19969;-74
2023/06/02 07:18:31;;;;;;;;;;;;;;;16.77;99.99;95852.31;5095458;28;19928;-75
2023/06/02 07:20:59;;;;;;;;;;;;;;;17.22;100.00;95854.50;5086822;28;19925;-75
2023/06/02 07:23:26;;;;;;;;;;;;;;;17.32;91.21;95856.16;5095658;28;19977;-75
2023/06/02 07:25:52;;;;;;;;;;;;;;;16.82;94.60;95850.94;5101326;28;19928;-75
2023/06/02 07:28:18;;;;;;;;;;;;;;;17.14;100.00;95855.16;5095135;28;19993;-75
2023/06/02 07:30:47;;;;;;;;;;;;;;;17.30;98.44;95855.44;5093767;28;19928;-77
2023/06/02 07:33:14;;;;;;;;;;;;;;;17.38;98.28;95847.75;5086517;28;19924;-74
2023/06/02 07:35:40;;;;;;;;;;;;;;;17.66;95.38;95848.75;5095569;28;20382;-73
2023/06/02 07:38:08;;;;;;;;;;;;;;;17.39;94.59;95861.66;5101723;28;19935;-74
2023/06/02 07:40:34;;;;;;;;;;;;;;;17.77;95.35;95857.47;5098498;28;19924;-74
2023/06/02 07:43:00;;;;;;;;;;;;;;;17.46;88.97;95857.53;5094549;28;19928;-73
2023/06/02 07:45:27;;;;;;;;;;;;;;;17.44;88.31;95862.09;5099466;28;19934;-75
2023/06/02 07:47:53;;;;;;;;;;;;;;;16.91;94.87;95860.59;5100802;28;19931;-75
2023/06/02 07:50:20;;;;;;;;;;;;;;;17.66;93.71;95855.78;5092305;27;20387;-77
2023/06/02 07:52:46;;;;;;;;;;;;;;;17.92;92.91;95850.00;5104994;28;19924;-74
2023/06/02 07:55:14;;;;;;;;;;;;;;;18.30;90.11;95851.72;5099523;28;20263;-76
2023/06/02 07:57:40;;;;;;;;;;;;;;;18.20;89.04;95864.03;5094438;28;19962;-74
2023/06/02 08:00:10;;;;;;;;;;;;;;;18.26;89.23;95850.38;5096144;28;19931;-75
2023/06/02 08:02:37;;;;;;;;;;;;;;;18.69;92.07;95851.59;5095841;28;20397;-76
2023/06/02 08:05:03;;;;;;;;;;;;;;;18.44;92.73;95851.28;5096226;28;19923;-76
2023/06/02 08:07:29;;;;;;;;;;;;;;;18.38;97.57;95847.41;5099703;28;19931;-76
2023/06/02 08:09:56;;;;;;;;;;;;;;;18.20;88.24;95848.28;5093218;28;19931;-75
2023/06/02 08:12:24;;;;;;;;;;;;;;;18.38;86.29;95850.03;5086787;28;20043;-75
2023/06/02 08:14:50;;;;;;;;;;;;;;;18.75;92.57;95853.69;5093490;28;20478;-74
2023/06/02 08:17:17;;;;;;;;;;;;;;;18.11;86.87;95853.41;5099188;28;19927;-73
2023/06/02 08:19:43;;;;;;;;;;;;;;;18.18;96.00;95856.31;5102842;28;19924;-74
2023/06/02 08:22:10;;;;;;;;;;;;;;;18.59;93.30;95849.84;5097834;28;19924;-74
2023/06/02 08:24:36;;;;;;;;;;;;;;;18.70;83.79;95846.22;5098406;28;20019;-74
2023/06/02 08:27:03;;;;;;;;;;;;;;;18.57;83.73;95849.16;5090684;28;20569;-76
2023/06/02 08:29:31;;;;;;;;;;;;;;;18.79;84.16;95844.56;5093297;28;19925;-73
2023/06/02 08:31:57;;;;;;;;;;;;;;;19.21;87.22;95847.53;5095953;28;19974;-73
2023/06/02 08:34:24;;;;;;;;;;;;;;;19.39;82.49;95842.25;5091615;28;19978;-74
2023/06/02 08:36:52;;;;;;;;;;;;;;;18.91;81.91;95847.81;5093004;28;20290;-74
2023/06/02 08:39:18;;;;;;;;;;;;;;;19.03;82.39;95851.91;5100219;28;19977;-73
2023/06/02 08:41:46;;;;;;;;;;;;;;;19.06;82.17;95841.13;5096013;28;19970;-74
2023/06/02 08:44:13;;;;;;;;;;;;;;;19.50;82.39;95836.78;5088472;28;19928;-74
2023/06/02 08:46:42;;;;;;;;;;;;;;;19.16;80.26;95843.66;5092257;28;20696;-73
2023/06/02 08:49:08;;;;;;;;;;;;;;;19.53;87.85;95841.75;5087979;28;19924;-74
2023/06/02 08:51:37;;;;;;;;;;;;;;;18.91;86.14;95843.41;5100706;28;19928;-73
2023/06/02 08:54:05;;;;;;;;;;;;;;;19.25;87.57;95833.13;5101709;28;19924;-74
2023/06/02 08:56:32;;;;;;;;;;;;;;;19.42;86.03;95839.34;5101247;28;19936;-72
2023/06/02 08:58:58;;;;;;;;;;;;;;;19.38;88.07;95843.25;5102413;28;19993;-75
2023/06/02 09:01:24;;;;;;;;;;;;;;;19.46;85.07;95843.31;5086533;28;19928;-75
2023/06/02 09:03:52;;;;;;;;;;;;;;;19.92;83.09;95845.91;5102130;28;19934;-74
2023/06/02 09:06:19;;;;;;;;;;;;;;;19.71;79.46;95844.41;5092030;28;20284;-75
2023/06/02 09:08:52;;;;;;;;;;;;;;;20.04;82.91;95845.50;5092648;28;19950;-75
2023/06/02 09:11:19;;;;;;;;;;;;;;;19.83;77.32;95848.47;5092402;28;19924;-74
2023/06/02 09:13:45;;;;;;;;;;;;;;;19.94;79.37;95842.13;5084093;28;19932;-74
2023/06/02 09:16:11;;;;;;;;;;;;;;;20.32;75.12;95842.78;5097048;28;20446;-75
2023/06/02 09:18:38;;;;;;;;;;;;;;;20.48;80.57;95848.13;5092814;28;19932;-75
2023/06/02 09:21:23;;;;;;;;;;;;;;;20.14;79.72;95841.97;5100522;27;19928;-76
2023/06/02 09:23:49;;;;;;;;;;;;;;;19.66;85.00;95844.06;5090806;28;19924;-73
2023/06/02 09:26:19;;;;;;;;;;;;;;;19.88;82.14;95832.25;5084903;28;19932;-74
2023/06/02 09:28:45;;;;;;;;;;;;;;;19.99;83.52;95837.28;5093238;28;20329;-74
2023/06/02 09:31:13;;;;;;;;;;;;;;;20.30;74.47;95849.97;5097666;28;19928;-73
2023/06/02 09:33:39;;;;;;;;;;;;;;;20.50;73.32;95840.91;5100310;28;19963;-73
2023/06/02 09:36:21;;;;;;;;;;;;;;;20.02;77.19;95844.84;5082927;28;19924;-74
2023/06/02 09:38:48;;;;;;;;;;;;;;;20.09;78.33;95842.41;5087786;28;19938;-73
2023/06/02 09:41:17;;;;;;;;;;;;;;;20.24;82.78;95842.69;5094166;28;19927;-74
2023/06/02 09:43:43;;;;;;;;;;;;;;;20.42;79.92;95845.28;5086064;28;19931;-75
2023/06/02 09:46:10;;;;;;;;;;;;;;;20.02;78.27;95847.50;5095118;28;19924;-73
2023/06/02 09:48:39;;;;;;;;;;;;;;;20.22;76.70;95842.84;5096408;28;19977;-74
2023/06/02 09:54:00;;;;;;;;;;;;;;;20.21;74.26;95849.09;5112185;27;20371;-73
2023/06/02 09:56:28;;;;;;;;;;;;;;;19.85;76.23;95844.88;5088496;28;19925;-73
2023/06/02 09:58:54;;;;;;;;;;;;;;;20.05;75.24;95846.34;5099202;28;19950;-74
2023/06/02 10:01:21;;;;;;;;;;;;;;;20.15;85.56;95847.06;5094632;28;20010;-74
2023/06/02 10:03:47;;;;;;;;;;;;;;;20.27;78.51;95851.09;5093829;28;20350;-74
2023/06/02 10:06:16;;;;;;;;;;;;;;;20.50;80.12;95846.16;5090509;28;19924;-74
2023/06/02 10:08:48;;;;;;;;;;;;;;;20.88;67.98;95853.78;5096084;28;19981;-74
2023/06/02 10:11:21;;;;;;;;;;;;;;;20.83;71.89;95851.63;5096014;28;19924;-72
2023/06/02 10:14:05;;;;;;;;;;;;;;;20.45;68.54;95844.97;5082971;28;19932;-74
2023/06/02 10:16:39;;;;;;;;;;;;;;;20.39;74.48;95843.78;5094877;28;19924;-74
2023/06/02 10:19:15;;;;;;;;;;;;;;;20.65;71.55;95848.22;5084539;28;19931;-74
2023/06/02 10:21:48;;;;;;;;;;;;;;;20.29;66.86;95846.53;5091525;28;19932;-73
2023/06/02 10:24:21;;;;;;;;;;;;;;;20.58;67.72;95845.41;5082885;28;19986;-75
2023/06/02 10:26:59;;;;;;;;;;;;;;;20.76;73.26;95845.31;5087854;28;19932;-74
2023/06/02 10:29:25;;;;;;;;;;;;;;;21.03;64.24;95841.69;5091184;28;20324;-76
2023/06/02 10:31:52;;;;;;;;;;;;;;;21.26;64.24;95850.63;5089240;28;19928;-76
2023/06/02 10:34:37;;;;;;;;;;;;;;;21.22;73.38;95841.41;5097157;28;19973;-76
2023/06/02 10:37:15;;;;;;;;;;;;;;;21.19;67.63;95847.00;5094119;28;19928;-77
2023/06/02 10:39:52;;;;;;;;;;;;;;;21.18;64.97;95852.44;5094366;28;19935;-77
2023/06/02 10:42:21;;;;;;;;;;;;;;;20.94;66.64;95843.44;5087279;28;19925;-77
2023/06/02 10:44:48;;;;;;;;;;;;;;;20.53;72.35;95840.59;5100434;28;19979;-72
2023/06/02 10:47:41;;;;;;;;;;;;;;;20.75;61.43;95843.69;5096086;28;20023;-74
2023/06/02 10:50:09;;;;;;;;;;;;;;;20.34;60.91;95835.53;5058915;28;19928;-75
2023/06/02 10:52:55;;;;;;;;;;;;;;;20.79;66.00;95837.13;5110767;28;19977;-75
2023/06/02 10:55:27;;;;;;;;;;;;;;;20.86;70.54;95832.88;5105568;28;19947;-75
2023/06/02 10:57:53;;;;;;;;;;;;;;;21.21;65.33;95836.28;5097502;28;19954;-74
2023/06/02 11:00:43;;;;;;;;;;;;;;;21.20;70.85;95839.91;5105314;28;20365;-75
2023/06/02 11:03:24;;;;;;;;;;;;;;;21.02;68.55;95838.22;5102423;28;20398;-74
2023/06/02 11:05:54;;;;;;;;;;;;;;;21.32;65.73;95835.16;5097723;28;19942;-75
2023/06/02 11:08:27;;;;;;;;;;;;;;;21.34;61.01;95843.78;5091588;28;20352;-74
2023/06/02 11:10:56;;;;;;;;;;;;;;;21.06;64.80;95833.44;5096756;28;19923;-73
2023/06/02 11:13:23;;;;;;;;;;;;;;;21.38;68.03;95830.09;5087688;28;19928;-74
2023/06/02 11:16:06;;;;;;;;;;;;;;;21.34;69.28;95830.59;5088680;28;19944;-74
2023/06/02 11:18:42;;;;;;;;;;;;;;;21.46;71.55;95838.03;5092350;28;19929;-74
2023/06/02 11:21:16;;;;;;;;;;;;;;;21.57;64.43;95830.78;5102743;28;19923;-73
2023/06/02 11:23:42;;;;;;;;;;;;;;;21.71;65.59;95832.78;5089476;28;19978;-73
2023/06/02 11:26:11;;;;;;;;;;;;;;;22.06;61.56;95833.44;5086098;28;20330;-74
2023/06/02 11:28:37;;;;;;;;;;;;;;;21.45;62.17;95830.28;5083232;28;19936;-74
2023/06/02 11:31:08;;;;;;;;;;;;;;;21.52;55.92;95835.75;5093551;28;19931;-74
2023/06/02 11:33:34;;;;;;;;;;;;;;;21.60;71.47;95827.84;5093305;28;20305;-74
2023/06/02 11:36:01;;;;;;;;;;;;;;;21.38;60.47;95839.81;5088521;28;19928;-74
2023/06/02 11:38:32;;;;;;;;;;;;;;;21.51;67.38;95827.03;5098280;28;19927;-74
2023/06/02 11:41:08;;;;;;;;;;;;;;;21.69;74.08;95822.44;5105211;28;20010;-74
2023/06/02 11:43:35;;;;;;;;;;;;;;;21.86;66.84;95823.25;5095135;28;19931;-74
2023/06/02 11:46:05;;;;;;;;;;;;;;;21.34;58.03;95825.31;5088132;28;20263;-73
2023/06/02 11:48:32;;;;;;;;;;;;;;;21.57;64.39;95825.53;5094699;28;19928;-73
2023/06/02 11:50:58;;;;;;;;;;;;;;;21.60;64.52;95822.56;5095048;28;19924;-74
2023/06/02 11:53:24;;;;;;;;;;;;;;;21.69;64.50;95813.66;5098545;28;19924;-74
2023/06/02 11:55:51;;;;;;;;;;;;;;;21.55;59.48;95816.97;5087836;28;20610;-70
2023/06/02 11:58:18;;;;;;;;;;;;;;;21.48;56.12;95817.63;5086305;28;20049;-72
2023/06/02 12:00:45;;;;;;;;;;;;;;;21.52;61.70;95806.75;5088257;28;20030;-74
2023/06/02 12:03:14;;;;;;;;;;;;;;;21.70;59.38;95799.53;5099010;28;19935;-74
2023/06/02 12:05:43;;;;;;;;;;;;;;;21.36;56.99;95804.91;5095006;28;19931;-76
2023/06/02 12:08:10;;;;;;;;;;;;;;;21.32;56.69;95806.19;5087639;28;20394;-74
2023/06/02 12:10:37;;;;;;;;;;;;;;;21.29;50.95;95801.25;5095956;28;19940;-74
2023/06/02 12:13:03;;;;;;;;;;;;;;;21.30;55.45;95798.44;5084493;28;20167;-75
2023/06/02 12:15:33;;;;;;;;;;;;;;;21.35;56.93;95796.19;5097037;28;19928;-74
2023/06/02 12:18:00;;;;;;;;;;;;;;;21.35;57.07;95796.19;5088849;28;19985;-75
2023/06/02 12:20:34;;;;;;;;;;;;;;;21.50;60.04;95801.63;5096101;28;19928;-75
2023/06/02 12:23:00;;;;;;;;;;;;;;;21.39;58.05;95808.03;5092213;28;20420;-74
2023/06/02 12:25:26;;;;;;;;;;;;;;;21.34;55.72;95802.44;5099226;28;20586;-74
2023/06/02 12:27:53;;;;;;;;;;;;;;;21.10;48.78;95804.97;5093081;28;19924;-75
2023/06/02 12:30:19;;;;;;;;;;;;;;;21.52;64.82;95817.28;5090776;28;19946;-75
2023/06/02 12:32:45;;;;;;;;;;;;;;;21.31;56.63;95797.47;5097852;28;19924;-74
2023/06/02 12:35:13;;;;;;;;;;;;;;;21.43;57.58;95804.13;5077396;28;19932;-75
2023/06/02 12:37:40;;;;;;;;;;;;;;;21.31;53.21;95797.47;5097465;28;19977;-75
2023/06/02 12:40:07;;;;;;;;;;;;;;;21.52;59.77;95806.75;5080231;28;19967;-74
2023/06/02 12:42:33;;;;;;;;;;;;;;;21.32;54.53;95799.13;5097062;28;19931;-75
2023/06/02 12:45:00;;;;;;;;;;;;;;;21.40;53.15;95800.97;5084898;28;19977;-75
2023/06/02 12:47:28;;;;;;;;;;;;;;;21.47;55.47;95799.34;5101499;28;19924;-75
2023/06/02 12:49:54;;;;;;;;;;;;;;;21.37;54.21;95796.03;5097526;28;19930;-75